sensor_id;sensor_type;location;lat;lon;timestamp;temperature;humidity
6810;DHT22;3443;48.812;9.112;2022-12-29T00:01:51;9.20;99.90
6810;DHT22;3443;48.812;9.112;2022-12-29T00:04:18;9.30;99.90
6810;DHT22;3443;48.812;9.112;2022-12-29T00:06:43;9.30;99.90
6810;DHT22;3443;48.812;9.112;2022-12-29T00:09:11;9.30;99.90
6810;DHT22;3443;48.812;9.112;2022-12-29T00:11:37;9.30;99.90
6810;DHT22;3443;48.812;9.112;2022-12-29T00:14:03;9.30;99.90
6810;DHT22;3443;48.812;9.112;2022-12-29T00:16:47;9.30;99.90
6810;DHT22;3443;48.812;9.112;2022-12-29T00:19:13;9.30;99.90
6810;DHT22;3443;48.812;9.112;2022-12-29T00:21:58;9.30;99.90
6810;DHT22;3443;48.812;9.112;2022-12-29T00:24:45;9.30;99.90
6810;DHT22;3443;48.812;9.112;2022-12-29T00:27:20;9.30;99.90
6810;DHT22;3443;48.812;9.112;2022-12-29T00:30:25;9.30;99.90
6810;DHT22;3443;48.812;9.112;2022-12-29T00:33:13;9.40;99.90
6810;DHT22;3443;48.812;9.112;2022-12-29T00:38:31;9.40;99.90
6810;DHT22;3443;48.812;9.112;2022-12-29T00:41:16;9.50;99.90
6810;DHT22;3443;48.812;9.112;2022-12-29T00:44:00;9.50;99.90
6810;DHT22;3443;48.812;9.112;2022-12-29T00:46:37;9.50;99.90
6810;DHT22;3443;48.812;9.112;2022-12-29T00:49:03;9.50;99.90
6810;DHT22;3443;48.812;9.112;2022-12-29T00:51:48;9.50;99.90
6810;DHT22;3443;48.812;9.112;2022-12-29T00:54:14;9.60;99.90
6810;DHT22;3443;48.812;9.112;2022-12-29T00:56:39;9.60;99.90
6810;DHT22;3443;48.812;9.112;2022-12-29T00:59:08;9.60;99.90
6810;DHT22;3443;48.812;9.112;2022-12-29T01:01:34;9.60;99.90
6810;DHT22;3443;48.812;9.112;2022-12-29T01:04:00;9.60;99.90
6810;DHT22;3443;48.812;9.112;2022-12-29T01:06:26;9.60;99.90
6810;DHT22;3443;48.812;9.112;2022-12-29T01:08:52;9.60;99.90
6810;DHT22;3443;48.812;9.112;2022-12-29T01:11:36;9.70;99.90
6810;DHT22;3443;48.812;9.112;2022-12-29T01:14:01;9.70;99.90
6810;DHT22;3443;48.812;9.112;2022-12-29T01:16:27;9.80;99.90
6810;DHT22;3443;48.812;9.112;2022-12-29T01:18:53;9.90;99.90
6810;DHT22;3443;48.812;9.112;2022-12-29T01:21:18;9.90;99.90
6810;DHT22;3443;48.812;9.112;2022-12-29T01:23:44;10.00;99.90
6810;DHT22;3443;48.812;9.112;2022-12-29T01:26:15;10.00;99.90
6810;DHT22;3443;48.812;9.112;2022-12-29T01:28:41;10.10;99.90
6810;DHT22;3443;48.812;9.112;2022-12-29T01:31:11;10.10;99.90
6810;DHT22;3443;48.812;9.112;2022-12-29T01:33:38;10.20;99.90
6810;DHT22;3443;48.812;9.112;2022-12-29T01:36:09;10.20;99.90
6810;DHT22;3443;48.812;9.112;2022-12-29T01:38:36;10.20;99.90
6810;DHT22;3443;48.812;9.112;2022-12-29T01:41:03;10.30;99.90
6810;DHT22;3443;48.812;9.112;2022-12-29T01:49:05;10.30;99.90
6810;DHT22;3443;48.812;9.112;2022-12-29T01:51:41;10.30;99.90
6810;DHT22;3443;48.812;9.112;2022-12-29T01:54:13;10.30;99.90
6810;DHT22;3443;48.812;9.112;2022-12-29T01:56:41;10.30;99.90
6810;DHT22;3443;48.812;9.112;2022-12-29T01:59:12;10.30;99.90
6810;DHT22;3443;48.812;9.112;2022-12-29T02:01:40;10.40;99.90
6810;DHT22;3443;48.812;9.112;2022-12-29T02:04:07;10.40;99.90
6810;DHT22;3443;48.812;9.112;2022-12-29T02:06:43;10.40;99.90
6810;DHT22;3443;48.812;9.112;2022-12-29T02:09:10;10.40;99.90
6810;DHT22;3443;48.812;9.112;2022-12-29T02:11:36;10.40;99.90
6810;DHT22;3443;48.812;9.112;2022-12-29T02:14:08;10.40;99.90
6810;DHT22;3443;48.812;9.112;2022-12-29T02:21:58;10.40;99.90
6810;DHT22;3443;48.812;9.112;2022-12-29T02:30:12;10.40;99.90
6810;DHT22;3443;48.812;9.112;2022-12-29T02:35:42;10.40;99.90
6810;DHT22;3443;48.812;9.112;2022-12-29T02:43:45;10.60;99.90
6810;DHT22;3443;48.812;9.112;2022-12-29T02:46:27;10.60;99.90
6810;DHT22;3443;48.812;9.112;2022-12-29T02:49:47;10.60;99.90
6810;DHT22;3443;48.812;9.112;2022-12-29T02:52:15;10.60;99.90
6810;DHT22;3443;48.812;9.112;2022-12-29T02:54:42;10.60;99.90
6810;DHT22;3443;48.812;9.112;2022-12-29T02:59:52;10.60;99.90
6810;DHT22;3443;48.812;9.112;2022-12-29T03:07:23;10.80;99.90
6810;DHT22;3443;48.812;9.112;2022-12-29T03:12:44;10.70;99.90
6810;DHT22;3443;48.812;9.112;2022-12-29T03:15:48;10.70;99.90
6810;DHT22;3443;48.812;9.112;2022-12-29T03:18:56;10.70;99.90
6810;DHT22;3443;48.812;9.112;2022-12-29T03:21:32;10.70;99.90
6810;DHT22;3443;48.812;9.112;2022-12-29T03:24:26;10.80;99.90
6810;DHT22;3443;48.812;9.112;2022-12-29T03:26:56;10.80;99.90
6810;DHT22;3443;48.812;9.112;2022-12-29T03:29:24;10.80;99.90
6810;DHT22;3443;48.812;9.112;2022-12-29T03:31:52;10.80;99.90
6810;DHT22;3443;48.812;9.112;2022-12-29T03:34:20;10.80;99.90
6810;DHT22;3443;48.812;9.112;2022-12-29T03:37:00;10.80;99.90
6810;DHT22;3443;48.812;9.112;2022-12-29T03:39:27;10.80;99.90
6810;DHT22;3443;48.812;9.112;2022-12-29T03:42:05;10.80;99.90
6810;DHT22;3443;48.812;9.112;2022-12-29T03:44:41;10.80;99.90
6810;DHT22;3443;48.812;9.112;2022-12-29T03:47:10;10.80;99.90
6810;DHT22;3443;48.812;9.112;2022-12-29T03:49:36;10.90;99.90
6810;DHT22;3443;48.812;9.112;2022-12-29T03:52:01;10.90;99.90
6810;DHT22;3443;48.812;9.112;2022-12-29T03:54:27;10.90;99.90
6810;DHT22;3443;48.812;9.112;2022-12-29T03:56:52;10.80;99.90
6810;DHT22;3443;48.812;9.112;2022-12-29T03:59:18;10.80;99.90
6810;DHT22;3443;48.812;9.112;2022-12-29T04:01:43;10.70;99.90
6810;DHT22;3443;48.812;9.112;2022-12-29T04:04:09;10.60;99.90
6810;DHT22;3443;48.812;9.112;2022-12-29T04:06:35;10.50;99.90
6810;DHT22;3443;48.812;9.112;2022-12-29T04:09:00;10.50;99.90
6810;DHT22;3443;48.812;9.112;2022-12-29T04:11:26;10.40;99.90
6810;DHT22;3443;48.812;9.112;2022-12-29T04:13:52;10.40;99.90
6810;DHT22;3443;48.812;9.112;2022-12-29T04:16:17;10.30;99.90
6810;DHT22;3443;48.812;9.112;2022-12-29T04:18:43;10.20;99.90
6810;DHT22;3443;48.812;9.112;2022-12-29T04:21:08;10.30;99.90
6810;DHT22;3443;48.812;9.112;2022-12-29T04:23:37;10.40;99.90
6810;DHT22;3443;48.812;9.112;2022-12-29T04:26:04;10.40;99.90
6810;DHT22;3443;48.812;9.112;2022-12-29T04:28:31;10.50;99.90
6810;DHT22;3443;48.812;9.112;2022-12-29T04:30:57;10.40;99.90
6810;DHT22;3443;48.812;9.112;2022-12-29T04:33:22;10.40;99.90
6810;DHT22;3443;48.812;9.112;2022-12-29T04:35:48;10.40;99.90
6810;DHT22;3443;48.812;9.112;2022-12-29T04:38:14;10.50;99.90
6810;DHT22;3443;48.812;9.112;2022-12-29T04:40:41;10.50;99.90
6810;DHT22;3443;48.812;9.112;2022-12-29T04:43:07;10.50;99.90
6810;DHT22;3443;48.812;9.112;2022-12-29T04:45:33;10.30;99.90
6810;DHT22;3443;48.812;9.112;2022-12-29T04:47:58;10.30;99.90
6810;DHT22;3443;48.812;9.112;2022-12-29T04:50:24;10.20;99.90
6810;DHT22;3443;48.812;9.112;2022-12-29T04:52:49;10.30;99.90
6810;DHT22;3443;48.812;9.112;2022-12-29T04:55:15;10.30;99.90
6810;DHT22;3443;48.812;9.112;2022-12-29T04:57:41;10.30;99.90
6810;DHT22;3443;48.812;9.112;2022-12-29T05:00:07;10.30;99.90
6810;DHT22;3443;48.812;9.112;2022-12-29T05:02:34;10.30;99.90
6810;DHT22;3443;48.812;9.112;2022-12-29T05:05:00;10.30;99.90
6810;DHT22;3443;48.812;9.112;2022-12-29T05:07:25;10.30;99.90
6810;DHT22;3443;48.812;9.112;2022-12-29T05:09:51;10.30;99.90
6810;DHT22;3443;48.812;9.112;2022-12-29T05:12:17;10.30;99.90
6810;DHT22;3443;48.812;9.112;2022-12-29T05:14:42;10.30;99.90
6810;DHT22;3443;48.812;9.112;2022-12-29T05:17:08;10.30;99.90
6810;DHT22;3443;48.812;9.112;2022-12-29T05:19:33;10.40;99.90
6810;DHT22;3443;48.812;9.112;2022-12-29T05:21:59;10.50;99.90
6810;DHT22;3443;48.812;9.112;2022-12-29T05:24:24;10.50;99.90
6810;DHT22;3443;48.812;9.112;2022-12-29T05:26:50;10.50;99.90
6810;DHT22;3443;48.812;9.112;2022-12-29T05:29:16;10.60;99.90
6810;DHT22;3443;48.812;9.112;2022-12-29T05:31:41;10.50;99.90
6810;DHT22;3443;48.812;9.112;2022-12-29T05:34:08;10.50;99.90
6810;DHT22;3443;48.812;9.112;2022-12-29T05:36:34;10.50;99.90
6810;DHT22;3443;48.812;9.112;2022-12-29T05:38:59;10.70;99.90
6810;DHT22;3443;48.812;9.112;2022-12-29T05:41:25;10.70;99.90
6810;DHT22;3443;48.812;9.112;2022-12-29T05:43:51;10.80;99.90
6810;DHT22;3443;48.812;9.112;2022-12-29T05:46:16;10.80;99.90
6810;DHT22;3443;48.812;9.112;2022-12-29T05:48:42;10.80;99.90
6810;DHT22;3443;48.812;9.112;2022-12-29T05:51:07;10.80;99.90
6810;DHT22;3443;48.812;9.112;2022-12-29T05:53:33;10.90;99.90
6810;DHT22;3443;48.812;9.112;2022-12-29T05:55:58;10.90;99.90
6810;DHT22;3443;48.812;9.112;2022-12-29T05:58:24;11.00;99.90
6810;DHT22;3443;48.812;9.112;2022-12-29T06:00:49;11.00;99.90
6810;DHT22;3443;48.812;9.112;2022-12-29T06:03:15;11.00;99.90
6810;DHT22;3443;48.812;9.112;2022-12-29T06:05:41;11.00;99.90
6810;DHT22;3443;48.812;9.112;2022-12-29T06:08:06;11.00;99.90
6810;DHT22;3443;48.812;9.112;2022-12-29T06:10:32;11.00;99.90
6810;DHT22;3443;48.812;9.112;2022-12-29T06:12:58;10.90;99.90
6810;DHT22;3443;48.812;9.112;2022-12-29T06:15:23;10.80;99.90
6810;DHT22;3443;48.812;9.112;2022-12-29T06:17:49;10.90;99.90
6810;DHT22;3443;48.812;9.112;2022-12-29T06:20:14;10.90;99.90
6810;DHT22;3443;48.812;9.112;2022-12-29T06:22:40;10.90;99.90
6810;DHT22;3443;48.812;9.112;2022-12-29T06:25:06;10.80;99.90
6810;DHT22;3443;48.812;9.112;2022-12-29T06:27:31;10.80;99.90
6810;DHT22;3443;48.812;9.112;2022-12-29T06:29:57;10.80;99.90
6810;DHT22;3443;48.812;9.112;2022-12-29T06:32:23;10.80;99.90
6810;DHT22;3443;48.812;9.112;2022-12-29T06:34:48;10.80;99.90
6810;DHT22;3443;48.812;9.112;2022-12-29T06:37:14;10.70;99.90
6810;DHT22;3443;48.812;9.112;2022-12-29T06:39:40;10.70;99.90
6810;DHT22;3443;48.812;9.112;2022-12-29T06:42:05;10.70;99.90
6810;DHT22;3443;48.812;9.112;2022-12-29T06:44:31;10.70;99.90
6810;DHT22;3443;48.812;9.112;2022-12-29T06:46:56;10.70;99.90
6810;DHT22;3443;48.812;9.112;2022-12-29T06:49:22;10.70;99.90
6810;DHT22;3443;48.812;9.112;2022-12-29T06:51:48;10.70;99.90
6810;DHT22;3443;48.812;9.112;2022-12-29T06:54:14;10.80;99.90
6810;DHT22;3443;48.812;9.112;2022-12-29T06:56:40;10.70;99.90
6810;DHT22;3443;48.812;9.112;2022-12-29T06:59:05;10.70;99.90
6810;DHT22;3443;48.812;9.112;2022-12-29T07:01:31;10.70;99.90
6810;DHT22;3443;48.812;9.112;2022-12-29T07:03:56;10.70;99.90
6810;DHT22;3443;48.812;9.112;2022-12-29T07:06:22;10.70;99.90
6810;DHT22;3443;48.812;9.112;2022-12-29T07:08:48;10.60;99.90
6810;DHT22;3443;48.812;9.112;2022-12-29T07:11:14;10.60;99.90
6810;DHT22;3443;48.812;9.112;2022-12-29T07:13:39;10.60;99.90
6810;DHT22;3443;48.812;9.112;2022-12-29T07:16:06;10.60;99.90
6810;DHT22;3443;48.812;9.112;2022-12-29T07:18:32;10.60;99.90
6810;DHT22;3443;48.812;9.112;2022-12-29T07:20:58;10.60;99.90
6810;DHT22;3443;48.812;9.112;2022-12-29T07:23:23;10.60;99.90
6810;DHT22;3443;48.812;9.112;2022-12-29T07:25:49;10.60;99.90
6810;DHT22;3443;48.812;9.112;2022-12-29T07:28:14;10.60;99.90
6810;DHT22;3443;48.812;9.112;2022-12-29T07:30:40;10.60;99.90
6810;DHT22;3443;48.812;9.112;2022-12-29T07:33:06;10.60;99.90
6810;DHT22;3443;48.812;9.112;2022-12-29T07:35:33;10.50;99.90
6810;DHT22;3443;48.812;9.112;2022-12-29T07:37:59;10.50;99.90
6810;DHT22;3443;48.812;9.112;2022-12-29T07:40:25;10.40;99.90
6810;DHT22;3443;48.812;9.112;2022-12-29T07:42:50;10.50;99.90
6810;DHT22;3443;48.812;9.112;2022-12-29T07:45:16;10.30;99.90
6810;DHT22;3443;48.812;9.112;2022-12-29T07:47:41;10.40;99.90
6810;DHT22;3443;48.812;9.112;2022-12-29T07:50:07;10.30;99.90
6810;DHT22;3443;48.812;9.112;2022-12-29T07:52:33;10.30;99.90
6810;DHT22;3443;48.812;9.112;2022-12-29T07:54:58;10.30;99.90
6810;DHT22;3443;48.812;9.112;2022-12-29T07:57:24;10.30;99.90
6810;DHT22;3443;48.812;9.112;2022-12-29T07:59:49;10.30;99.90
6810;DHT22;3443;48.812;9.112;2022-12-29T08:02:15;10.30;99.90
6810;DHT22;3443;48.812;9.112;2022-12-29T08:04:40;10.30;99.90
6810;DHT22;3443;48.812;9.112;2022-12-29T08:07:06;10.30;99.90
6810;DHT22;3443;48.812;9.112;2022-12-29T08:09:31;10.30;99.90
6810;DHT22;3443;48.812;9.112;2022-12-29T08:11:57;10.30;99.90
6810;DHT22;3443;48.812;9.112;2022-12-29T08:14:22;10.30;99.90
6810;DHT22;3443;48.812;9.112;2022-12-29T08:16:48;10.30;99.90
6810;DHT22;3443;48.812;9.112;2022-12-29T08:19:14;10.30;99.90
6810;DHT22;3443;48.812;9.112;2022-12-29T08:21:39;10.40;99.90
6810;DHT22;3443;48.812;9.112;2022-12-29T08:24:06;10.40;99.90
6810;DHT22;3443;48.812;9.112;2022-12-29T08:26:32;10.50;99.90
6810;DHT22;3443;48.812;9.112;2022-12-29T08:28:58;10.50;99.90
6810;DHT22;3443;48.812;9.112;2022-12-29T08:31:23;10.50;99.90
6810;DHT22;3443;48.812;9.112;2022-12-29T08:33:49;10.50;99.90
6810;DHT22;3443;48.812;9.112;2022-12-29T08:36:15;10.60;99.90
6810;DHT22;3443;48.812;9.112;2022-12-29T08:38:40;10.60;99.90
6810;DHT22;3443;48.812;9.112;2022-12-29T08:41:06;10.80;99.90
6810;DHT22;3443;48.812;9.112;2022-12-29T08:43:31;10.60;99.90
6810;DHT22;3443;48.812;9.112;2022-12-29T08:45:58;10.60;99.90
6810;DHT22;3443;48.812;9.112;2022-12-29T08:48:24;10.60;99.90
6810;DHT22;3443;48.812;9.112;2022-12-29T08:50:50;10.60;99.90
6810;DHT22;3443;48.812;9.112;2022-12-29T08:53:16;10.70;99.90
6810;DHT22;3443;48.812;9.112;2022-12-29T08:55:41;10.70;99.90
6810;DHT22;3443;48.812;9.112;2022-12-29T08:58:07;10.70;99.90
6810;DHT22;3443;48.812;9.112;2022-12-29T09:00:33;10.80;99.90
6810;DHT22;3443;48.812;9.112;2022-12-29T09:02:58;10.90;99.90
6810;DHT22;3443;48.812;9.112;2022-12-29T09:05:24;10.90;99.90
6810;DHT22;3443;48.812;9.112;2022-12-29T09:07:49;10.90;99.90
6810;DHT22;3443;48.812;9.112;2022-12-29T09:10:15;11.00;99.90
6810;DHT22;3443;48.812;9.112;2022-12-29T09:12:40;11.10;99.90
6810;DHT22;3443;48.812;9.112;2022-12-29T09:15:06;11.10;99.90
6810;DHT22;3443;48.812;9.112;2022-12-29T09:17:32;11.20;99.90
6810;DHT22;3443;48.812;9.112;2022-12-29T09:20:13;11.30;99.90
6810;DHT22;3443;48.812;9.112;2022-12-29T09:22:39;11.40;99.90
6810;DHT22;3443;48.812;9.112;2022-12-29T09:25:05;11.40;99.90
6810;DHT22;3443;48.812;9.112;2022-12-29T09:27:30;11.60;99.90
6810;DHT22;3443;48.812;9.112;2022-12-29T09:29:56;11.70;99.90
6810;DHT22;3443;48.812;9.112;2022-12-29T09:32:22;11.70;99.90
6810;DHT22;3443;48.812;9.112;2022-12-29T09:34:48;11.80;99.90
6810;DHT22;3443;48.812;9.112;2022-12-29T09:37:13;11.90;99.90
6810;DHT22;3443;48.812;9.112;2022-12-29T09:39:39;11.90;99.90
6810;DHT22;3443;48.812;9.112;2022-12-29T09:47:11;12.30;99.90
6810;DHT22;3443;48.812;9.112;2022-12-29T09:49:54;12.40;99.90
6810;DHT22;3443;48.812;9.112;2022-12-29T09:52:24;12.50;99.90
6810;DHT22;3443;48.812;9.112;2022-12-29T09:55:10;12.60;99.90
6810;DHT22;3443;48.812;9.112;2022-12-29T09:58:02;12.70;99.90
6810;DHT22;3443;48.812;9.112;2022-12-29T10:01:06;12.80;99.90
6810;DHT22;3443;48.812;9.112;2022-12-29T10:03:52;12.80;99.90
6810;DHT22;3443;48.812;9.112;2022-12-29T10:12:12;12.60;99.90
6810;DHT22;3443;48.812;9.112;2022-12-29T10:15:13;12.60;99.90
6810;DHT22;3443;48.812;9.112;2022-12-29T10:20:29;12.50;99.90
6810;DHT22;3443;48.812;9.112;2022-12-29T10:23:32;12.50;99.90
6810;DHT22;3443;48.812;9.112;2022-12-29T10:26:01;12.50;99.90
6810;DHT22;3443;48.812;9.112;2022-12-29T10:28:33;12.50;99.90
6810;DHT22;3443;48.812;9.112;2022-12-29T10:31:01;12.50;99.90
6810;DHT22;3443;48.812;9.112;2022-12-29T10:33:36;12.50;99.90
6810;DHT22;3443;48.812;9.112;2022-12-29T10:36:17;12.70;99.90
6810;DHT22;3443;48.812;9.112;2022-12-29T10:38:56;12.70;99.90
6810;DHT22;3443;48.812;9.112;2022-12-29T10:41:28;12.80;99.90
6810;DHT22;3443;48.812;9.112;2022-12-29T10:43:58;12.90;99.90
6810;DHT22;3443;48.812;9.112;2022-12-29T10:46:28;12.90;99.90
6810;DHT22;3443;48.812;9.112;2022-12-29T10:48:55;12.90;99.90
6810;DHT22;3443;48.812;9.112;2022-12-29T10:51:24;12.80;99.90
6810;DHT22;3443;48.812;9.112;2022-12-29T10:56:37;13.00;99.90
6810;DHT22;3443;48.812;9.112;2022-12-29T10:59:18;13.00;99.90
6810;DHT22;3443;48.812;9.112;2022-12-29T11:07:31;13.00;99.90
6810;DHT22;3443;48.812;9.112;2022-12-29T11:12:58;13.00;99.90
6810;DHT22;3443;48.812;9.112;2022-12-29T11:15:24;13.00;99.90
6810;DHT22;3443;48.812;9.112;2022-12-29T11:17:52;13.00;99.90
6810;DHT22;3443;48.812;9.112;2022-12-29T11:20:36;13.00;99.90
6810;DHT22;3443;48.812;9.112;2022-12-29T11:23:04;13.10;99.90
6810;DHT22;3443;48.812;9.112;2022-12-29T11:25:31;13.50;99.90
6810;DHT22;3443;48.812;9.112;2022-12-29T11:28:02;13.10;99.90
6810;DHT22;3443;48.812;9.112;2022-12-29T11:30:31;13.30;99.90
6810;DHT22;3443;48.812;9.112;2022-12-29T11:32:57;13.10;99.90
6810;DHT22;3443;48.812;9.112;2022-12-29T11:37:58;13.00;99.90
6810;DHT22;3443;48.812;9.112;2022-12-29T11:40:24;13.00;99.90
6810;DHT22;3443;48.812;9.112;2022-12-29T11:45:21;12.90;99.90
6810;DHT22;3443;48.812;9.112;2022-12-29T11:47:57;12.80;99.90
6810;DHT22;3443;48.812;9.112;2022-12-29T11:50:31;12.70;99.90
6810;DHT22;3443;48.812;9.112;2022-12-29T11:55:26;12.80;99.90
6810;DHT22;3443;48.812;9.112;2022-12-29T11:57:55;12.90;99.90
6810;DHT22;3443;48.812;9.112;2022-12-29T12:00:24;12.30;99.90
6810;DHT22;3443;48.812;9.112;2022-12-29T12:02:55;12.10;99.90
6810;DHT22;3443;48.812;9.112;2022-12-29T12:05:33;12.30;99.90
6810;DHT22;3443;48.812;9.112;2022-12-29T12:10:44;11.70;99.90
6810;DHT22;3443;48.812;9.112;2022-12-29T12:16:15;11.60;99.90
6810;DHT22;3443;48.812;9.112;2022-12-29T12:18:47;11.60;99.90
6810;DHT22;3443;48.812;9.112;2022-12-29T12:21:20;11.60;99.90
6810;DHT22;3443;48.812;9.112;2022-12-29T12:26:36;11.60;99.90
6810;DHT22;3443;48.812;9.112;2022-12-29T12:29:04;11.80;99.90
6810;DHT22;3443;48.812;9.112;2022-12-29T12:34:08;11.80;99.90
6810;DHT22;3443;48.812;9.112;2022-12-29T12:39:27;11.90;99.90
6810;DHT22;3443;48.812;9.112;2022-12-29T12:47:44;12.20;99.90
6810;DHT22;3443;48.812;9.112;2022-12-29T12:50:35;12.30;99.90
6810;DHT22;3443;48.812;9.112;2022-12-29T12:53:33;12.30;99.90
6810;DHT22;3443;48.812;9.112;2022-12-29T12:56:10;12.30;99.90
6810;DHT22;3443;48.812;9.112;2022-12-29T12:59:04;12.50;99.90
6810;DHT22;3443;48.812;9.112;2022-12-29T13:01:46;12.30;99.90
6810;DHT22;3443;48.812;9.112;2022-12-29T13:24:24;12.30;99.90
6810;DHT22;3443;48.812;9.112;2022-12-29T13:27:06;12.20;99.90
6810;DHT22;3443;48.812;9.112;2022-12-29T13:30:07;12.20;99.90
6810;DHT22;3443;48.812;9.112;2022-12-29T13:38:24;12.10;99.90
6810;DHT22;3443;48.812;9.112;2022-12-29T13:40:55;12.10;99.90
6810;DHT22;3443;48.812;9.112;2022-12-29T13:43:23;12.20;99.90
6810;DHT22;3443;48.812;9.112;2022-12-29T13:45:59;12.00;99.90
6810;DHT22;3443;48.812;9.112;2022-12-29T13:48:37;12.00;99.90
6810;DHT22;3443;48.812;9.112;2022-12-29T13:51:05;12.00;99.90
6810;DHT22;3443;48.812;9.112;2022-12-29T13:56:19;11.90;99.90
6810;DHT22;3443;48.812;9.112;2022-12-29T13:59:14;11.90;99.90
6810;DHT22;3443;48.812;9.112;2022-12-29T14:01:47;11.90;99.90
6810;DHT22;3443;48.812;9.112;2022-12-29T14:04:22;11.90;99.90
6810;DHT22;3443;48.812;9.112;2022-12-29T14:07:02;11.90;99.90
6810;DHT22;3443;48.812;9.112;2022-12-29T14:11:56;11.90;99.90
6810;DHT22;3443;48.812;9.112;2022-12-29T14:14:24;11.90;99.90
6810;DHT22;3443;48.812;9.112;2022-12-29T14:16:51;11.90;99.90
6810;DHT22;3443;48.812;9.112;2022-12-29T14:19:28;11.80;99.90
6810;DHT22;3443;48.812;9.112;2022-12-29T14:21:57;11.90;99.90
6810;DHT22;3443;48.812;9.112;2022-12-29T14:24:39;11.80;99.90
6810;DHT22;3443;48.812;9.112;2022-12-29T14:34:59;11.90;99.90
6810;DHT22;3443;48.812;9.112;2022-12-29T14:40:19;11.80;99.90
6810;DHT22;3443;48.812;9.112;2022-12-29T14:42:49;11.80;99.90
6810;DHT22;3443;48.812;9.112;2022-12-29T14:47:47;11.60;99.90
6810;DHT22;3443;48.812;9.112;2022-12-29T14:50:14;11.60;99.90
6810;DHT22;3443;48.812;9.112;2022-12-29T14:52:55;11.60;99.90
6810;DHT22;3443;48.812;9.112;2022-12-29T14:58:38;11.60;99.90
6810;DHT22;3443;48.812;9.112;2022-12-29T15:01:23;11.60;99.90
6810;DHT22;3443;48.812;9.112;2022-12-29T15:03:53;11.60;99.90
6810;DHT22;3443;48.812;9.112;2022-12-29T15:06:29;11.60;99.90
6810;DHT22;3443;48.812;9.112;2022-12-29T15:09:04;11.50;99.90
6810;DHT22;3443;48.812;9.112;2022-12-29T15:14:02;11.40;99.90
6810;DHT22;3443;48.812;9.112;2022-12-29T15:16:31;11.30;99.90
6810;DHT22;3443;48.812;9.112;2022-12-29T15:18:58;11.30;99.90
6810;DHT22;3443;48.812;9.112;2022-12-29T15:21:30;11.20;99.90
6810;DHT22;3443;48.812;9.112;2022-12-29T15:23:55;11.20;99.90
6810;DHT22;3443;48.812;9.112;2022-12-29T15:26:22;11.20;99.90
6810;DHT22;3443;48.812;9.112;2022-12-29T15:28:50;11.10;99.90
6810;DHT22;3443;48.812;9.112;2022-12-29T15:31:19;11.10;99.90
6810;DHT22;3443;48.812;9.112;2022-12-29T15:33:53;11.20;99.90
6810;DHT22;3443;48.812;9.112;2022-12-29T15:36:27;11.20;99.90
6810;DHT22;3443;48.812;9.112;2022-12-29T15:38:54;11.20;99.90
6810;DHT22;3443;48.812;9.112;2022-12-29T15:41:26;11.20;99.90
6810;DHT22;3443;48.812;9.112;2022-12-29T15:44:11;11.20;99.90
6810;DHT22;3443;48.812;9.112;2022-12-29T15:46:40;11.10;99.90
6810;DHT22;3443;48.812;9.112;2022-12-29T15:49:13;10.90;99.90
6810;DHT22;3443;48.812;9.112;2022-12-29T15:51:39;10.60;99.90
6810;DHT22;3443;48.812;9.112;2022-12-29T15:54:07;10.30;99.90
6810;DHT22;3443;48.812;9.112;2022-12-29T15:56:40;10.10;99.90
6810;DHT22;3443;48.812;9.112;2022-12-29T15:59:28;10.00;99.90
6810;DHT22;3443;48.812;9.112;2022-12-29T16:01:57;9.90;99.90
6810;DHT22;3443;48.812;9.112;2022-12-29T16:04:27;9.90;99.90
6810;DHT22;3443;48.812;9.112;2022-12-29T16:06:57;9.90;99.90
6810;DHT22;3443;48.812;9.112;2022-12-29T16:09:31;9.80;99.90
6810;DHT22;3443;48.812;9.112;2022-12-29T16:12:00;9.80;99.90
6810;DHT22;3443;48.812;9.112;2022-12-29T16:14:33;9.80;99.90
6810;DHT22;3443;48.812;9.112;2022-12-29T16:17:02;9.80;99.90
6810;DHT22;3443;48.812;9.112;2022-12-29T16:19:35;9.70;99.90
6810;DHT22;3443;48.812;9.112;2022-12-29T16:22:03;9.70;99.90
6810;DHT22;3443;48.812;9.112;2022-12-29T16:24:32;9.70;99.90
6810;DHT22;3443;48.812;9.112;2022-12-29T16:27:16;9.60;99.90
6810;DHT22;3443;48.812;9.112;2022-12-29T16:29:45;9.60;99.90
6810;DHT22;3443;48.812;9.112;2022-12-29T16:32:26;9.50;99.90
6810;DHT22;3443;48.812;9.112;2022-12-29T16:35:11;9.50;99.90
6810;DHT22;3443;48.812;9.112;2022-12-29T16:37:37;9.50;99.90
6810;DHT22;3443;48.812;9.112;2022-12-29T16:42:48;9.50;99.90
6810;DHT22;3443;48.812;9.112;2022-12-29T16:50:31;9.50;99.90
6810;DHT22;3443;48.812;9.112;2022-12-29T16:52:58;9.40;99.90
6810;DHT22;3443;48.812;9.112;2022-12-29T16:55:24;9.50;99.90
6810;DHT22;3443;48.812;9.112;2022-12-29T16:57:52;9.50;99.90
6810;DHT22;3443;48.812;9.112;2022-12-29T17:00:23;9.50;99.90
6810;DHT22;3443;48.812;9.112;2022-12-29T17:02:50;9.50;99.90
6810;DHT22;3443;48.812;9.112;2022-12-29T17:05:17;9.40;99.90
6810;DHT22;3443;48.812;9.112;2022-12-29T17:07:43;9.40;99.90
6810;DHT22;3443;48.812;9.112;2022-12-29T17:10:10;9.30;99.90
6810;DHT22;3443;48.812;9.112;2022-12-29T17:12:36;9.30;99.90
6810;DHT22;3443;48.812;9.112;2022-12-29T17:15:03;9.30;99.90
6810;DHT22;3443;48.812;9.112;2022-12-29T17:17:47;9.20;99.90
6810;DHT22;3443;48.812;9.112;2022-12-29T17:20:28;9.20;99.90
6810;DHT22;3443;48.812;9.112;2022-12-29T17:22:55;9.20;99.90
6810;DHT22;3443;48.812;9.112;2022-12-29T17:25:26;9.20;99.90
6810;DHT22;3443;48.812;9.112;2022-12-29T17:27:57;9.20;99.90
6810;DHT22;3443;48.812;9.112;2022-12-29T17:30:25;9.20;99.90
6810;DHT22;3443;48.812;9.112;2022-12-29T17:33:02;9.20;99.90
6810;DHT22;3443;48.812;9.112;2022-12-29T17:35:28;9.20;99.90
6810;DHT22;3443;48.812;9.112;2022-12-29T17:37:54;9.20;99.90
6810;DHT22;3443;48.812;9.112;2022-12-29T17:40:26;9.20;99.90
6810;DHT22;3443;48.812;9.112;2022-12-29T17:42:53;9.20;99.90
6810;DHT22;3443;48.812;9.112;2022-12-29T17:45:23;9.20;99.90
6810;DHT22;3443;48.812;9.112;2022-12-29T17:47:49;9.20;99.90
6810;DHT22;3443;48.812;9.112;2022-12-29T17:50:17;9.30;99.90
6810;DHT22;3443;48.812;9.112;2022-12-29T17:52:49;9.20;99.90
6810;DHT22;3443;48.812;9.112;2022-12-29T17:55:18;9.20;99.90
6810;DHT22;3443;48.812;9.112;2022-12-29T17:57:44;9.20;99.90
6810;DHT22;3443;48.812;9.112;2022-12-29T18:00:18;9.20;99.90
6810;DHT22;3443;48.812;9.112;2022-12-29T18:02:43;9.20;99.90
6810;DHT22;3443;48.812;9.112;2022-12-29T18:05:18;9.20;99.90
6810;DHT22;3443;48.812;9.112;2022-12-29T18:07:43;9.20;99.90
6810;DHT22;3443;48.812;9.112;2022-12-29T18:10:09;9.20;99.90
6810;DHT22;3443;48.812;9.112;2022-12-29T18:12:38;9.10;99.90
6810;DHT22;3443;48.812;9.112;2022-12-29T18:15:05;9.20;99.90
6810;DHT22;3443;48.812;9.112;2022-12-29T18:17:31;9.10;99.90
6810;DHT22;3443;48.812;9.112;2022-12-29T18:19:57;9.10;99.90
6810;DHT22;3443;48.812;9.112;2022-12-29T18:22:24;9.00;99.90
6810;DHT22;3443;48.812;9.112;2022-12-29T18:24:50;9.00;99.90
6810;DHT22;3443;48.812;9.112;2022-12-29T18:27:16;9.00;99.90
6810;DHT22;3443;48.812;9.112;2022-12-29T18:29:44;8.90;99.90
6810;DHT22;3443;48.812;9.112;2022-12-29T18:32:11;8.90;99.90
6810;DHT22;3443;48.812;9.112;2022-12-29T18:34:38;8.90;99.90
6810;DHT22;3443;48.812;9.112;2022-12-29T18:37:03;8.80;99.90
6810;DHT22;3443;48.812;9.112;2022-12-29T18:39:29;8.90;99.90
6810;DHT22;3443;48.812;9.112;2022-12-29T18:41:55;8.80;99.90
6810;DHT22;3443;48.812;9.112;2022-12-29T18:44:20;8.80;99.90
6810;DHT22;3443;48.812;9.112;2022-12-29T18:46:46;8.80;99.90
6810;DHT22;3443;48.812;9.112;2022-12-29T18:49:12;8.80;99.90
6810;DHT22;3443;48.812;9.112;2022-12-29T18:51:37;8.80;99.90